createdAt,value
2022-08-02T00:00:19.710Z,1013.58
2022-08-02T00:01:19.778Z,1013.59
2022-08-02T00:02:19.670Z,1013.57
2022-08-02T00:03:19.659Z,1013.59
2022-08-02T00:04:19.635Z,1013.59
2022-08-02T00:05:19.609Z,1013.63
2022-08-02T00:06:19.593Z,1013.64
2022-08-02T00:07:19.571Z,1013.69
2022-08-02T00:08:19.553Z,1013.68
2022-08-02T00:09:19.530Z,1013.69
2022-08-02T00:10:19.512Z,1013.66
2022-08-02T00:11:19.491Z,1013.66
2022-08-02T00:12:19.472Z,1013.65
2022-08-02T00:13:19.453Z,1013.68
2022-08-02T00:14:19.429Z,1013.68
2022-08-02T00:15:19.413Z,1013.71
2022-08-02T00:16:19.390Z,1013.71
2022-08-02T00:17:19.371Z,1013.71
2022-08-02T00:18:19.364Z,1013.73
2022-08-02T00:19:19.332Z,1013.77
2022-08-02T00:20:19.310Z,1013.76
2022-08-02T00:21:19.291Z,1013.75
2022-08-02T00:22:19.269Z,1013.77
2022-08-02T00:23:19.254Z,1013.76
2022-08-02T00:24:29.306Z,1013.77
2022-08-02T00:25:19.209Z,1013.73
2022-08-02T00:26:19.188Z,1013.73
2022-08-02T00:27:19.179Z,1013.76
2022-08-02T00:28:26.884Z,1013.74
2022-08-02T00:29:19.129Z,1013.78
2022-08-02T00:30:19.122Z,1013.77
2022-08-02T00:31:19.089Z,1013.77
2022-08-02T00:32:19.074Z,1013.75
2022-08-02T00:33:19.053Z,1013.72
2022-08-02T00:34:28.640Z,1013.72
2022-08-02T00:35:19.007Z,1013.73
2022-08-02T00:36:18.988Z,1013.71
2022-08-02T00:37:18.969Z,1013.71
2022-08-02T00:38:18.947Z,1013.68
2022-08-02T00:39:33.347Z,1013.65
2022-08-02T00:40:18.909Z,1013.68
2022-08-02T00:41:18.895Z,1013.65
2022-08-02T00:42:18.871Z,1013.66
2022-08-02T00:43:18.848Z,1013.65
2022-08-02T00:44:18.825Z,1013.67
2022-08-02T00:45:18.806Z,1013.67
2022-08-02T00:46:18.785Z,1013.67
2022-08-02T00:47:19.506Z,1013.65
2022-08-02T00:48:18.751Z,1013.64
2022-08-02T00:49:18.779Z,1013.61
2022-08-02T00:50:18.711Z,1013.61
2022-08-02T00:51:18.693Z,1013.60
2022-08-02T00:52:18.670Z,1013.58
2022-08-02T00:53:18.671Z,1013.62
2022-08-02T00:54:18.628Z,1013.58
2022-08-02T00:55:18.766Z,1013.57
2022-08-02T00:56:18.582Z,1013.58
2022-08-02T00:57:18.561Z,1013.52
2022-08-02T00:58:18.548Z,1013.53
2022-08-02T00:59:18.557Z,1013.55
2022-08-02T01:00:18.504Z,1013.57
2022-08-02T01:01:18.540Z,1013.55
2022-08-02T01:02:18.579Z,1013.58
2022-08-02T01:03:18.447Z,1013.57
2022-08-02T01:04:18.423Z,1013.61
2022-08-02T01:05:18.407Z,1013.59
2022-08-02T01:06:18.381Z,1013.60
2022-08-02T01:07:18.361Z,1013.60
2022-08-02T01:08:18.342Z,1013.62
2022-08-02T01:09:18.321Z,1013.59
2022-08-02T01:10:18.300Z,1013.59
2022-08-02T01:11:18.278Z,1013.59
2022-08-02T01:12:18.264Z,1013.61
2022-08-02T01:13:18.245Z,1013.56
2022-08-02T01:14:18.219Z,1013.57
2022-08-02T01:15:18.200Z,1013.57
2022-08-02T01:16:18.180Z,1013.57
2022-08-02T01:17:18.163Z,1013.53
2022-08-02T01:18:18.136Z,1013.56
2022-08-02T01:19:18.119Z,1013.56
2022-08-02T01:20:18.096Z,1013.58
2022-08-02T01:21:18.079Z,1013.55
2022-08-02T01:22:18.056Z,1013.57
2022-08-02T01:23:18.037Z,1013.58
2022-08-02T01:24:18.014Z,1013.58
2022-08-02T01:25:17.995Z,1013.60
2022-08-02T01:26:17.973Z,1013.57
2022-08-02T01:27:17.955Z,1013.56
2022-08-02T01:28:17.935Z,1013.58
2022-08-02T01:29:17.914Z,1013.56
2022-08-02T01:30:17.895Z,1013.57
2022-08-02T01:31:17.873Z,1013.54
2022-08-02T01:32:17.857Z,1013.57
2022-08-02T01:33:17.832Z,1013.57
2022-08-02T01:34:17.815Z,1013.56
2022-08-02T01:35:17.796Z,1013.59
2022-08-02T01:36:17.773Z,1013.52
2022-08-02T01:37:17.755Z,1013.52
2022-08-02T01:38:17.729Z,1013.50
2022-08-02T01:39:26.810Z,1013.48
2022-08-02T01:40:17.691Z,1013.51
2022-08-02T01:41:17.671Z,1013.51
2022-08-02T01:42:17.650Z,1013.50
2022-08-02T01:43:17.631Z,1013.48
2022-08-02T01:44:17.607Z,1013.48
2022-08-02T01:45:17.589Z,1013.45
2022-08-02T01:46:17.567Z,1013.46
2022-08-02T01:47:17.554Z,1013.46
2022-08-02T01:48:17.528Z,1013.46
2022-08-02T01:49:17.598Z,1013.48
2022-08-02T01:50:17.485Z,1013.44
2022-08-02T01:51:17.467Z,1013.47
2022-08-02T01:52:17.453Z,1013.49
2022-08-02T01:53:17.426Z,1013.50
2022-08-02T01:54:17.405Z,1013.49
2022-08-02T01:55:18.829Z,1013.51
2022-08-02T01:56:17.366Z,1013.51
2022-08-02T01:57:17.342Z,1013.51
2022-08-02T01:58:17.322Z,1013.49
2022-08-02T01:59:17.304Z,1013.46
2022-08-02T02:00:17.281Z,1013.53
2022-08-02T02:01:18.714Z,1013.50
2022-08-02T02:02:17.247Z,1013.51
2022-08-02T02:03:17.220Z,1013.46
2022-08-02T02:04:17.202Z,1013.47
2022-08-02T02:05:17.183Z,1013.43
2022-08-02T02:06:17.162Z,1013.43
2022-08-02T02:07:17.140Z,1013.45
2022-08-02T02:08:27.260Z,1013.43
2022-08-02T02:09:17.099Z,1013.41
2022-08-02T02:10:17.078Z,1013.39
2022-08-02T02:12:14.452Z,1013.38
2022-08-02T02:12:17.414Z,1013.36
2022-08-02T02:13:17.017Z,1013.39
2022-08-02T02:14:17.005Z,1013.32
2022-08-02T02:15:16.977Z,1013.34
2022-08-02T02:16:16.953Z,1013.27
2022-08-02T02:17:52.638Z,1013.31
2022-08-02T02:18:16.914Z,1013.28
2022-08-02T02:19:21.014Z,1013.28
2022-08-02T02:20:16.874Z,1013.24
2022-08-02T02:21:16.853Z,1013.21
2022-08-02T02:22:16.835Z,1013.17
2022-08-02T02:23:16.813Z,1013.16
2022-08-02T02:24:16.790Z,1013.19
2022-08-02T02:25:16.771Z,1013.19
2022-08-02T02:26:17.525Z,1013.19
2022-08-02T02:27:16.733Z,1013.14
2022-08-02T02:28:16.709Z,1013.17
2022-08-02T02:29:16.687Z,1013.13
2022-08-02T02:30:16.672Z,1013.18
2022-08-02T02:31:16.653Z,1013.17
2022-08-02T02:32:16.630Z,1013.18
2022-08-02T02:33:16.612Z,1013.17
2022-08-02T02:34:16.590Z,1013.18
2022-08-02T02:35:16.574Z,1013.18
2022-08-02T02:36:16.553Z,1013.18
2022-08-02T02:37:16.522Z,1013.19
2022-08-02T02:38:16.504Z,1013.15
2022-08-02T02:39:16.484Z,1013.14
2022-08-02T02:40:16.464Z,1013.10
2022-08-02T02:41:16.442Z,1013.07
2022-08-02T02:42:16.425Z,1013.07
2022-08-02T02:43:16.401Z,1013.05
2022-08-02T02:44:16.388Z,1013.04
2022-08-02T02:45:16.361Z,1013.02
2022-08-02T02:46:16.341Z,1013.03
2022-08-02T02:47:16.318Z,1012.99
2022-08-02T02:48:16.309Z,1012.99
2022-08-02T02:49:16.377Z,1012.99
2022-08-02T02:50:16.257Z,1012.99
2022-08-02T02:51:16.237Z,1012.95
2022-08-02T02:52:16.217Z,1012.91
2022-08-02T02:53:16.199Z,1012.90
2022-08-02T02:54:30.874Z,1012.91
2022-08-02T02:55:16.154Z,1012.90
2022-08-02T02:56:16.135Z,1012.91
2022-08-02T02:57:16.111Z,1012.94
2022-08-02T02:58:16.091Z,1012.93
2022-08-02T02:59:16.071Z,1012.93
2022-08-02T03:00:16.060Z,1012.96
2022-08-02T03:01:16.292Z,1012.95
2022-08-02T03:02:16.011Z,1012.97
2022-08-02T03:03:15.987Z,1012.94
2022-08-02T03:04:15.968Z,1012.97
2022-08-02T03:05:15.946Z,1012.98
2022-08-02T03:06:16.212Z,1012.99
2022-08-02T03:07:15.910Z,1013.01
2022-08-02T03:08:15.888Z,1013.02
2022-08-02T03:09:15.864Z,1013.06
2022-08-02T03:10:15.847Z,1013.06
2022-08-02T03:11:15.826Z,1013.08
2022-08-02T03:12:15.806Z,1013.10
2022-08-02T03:13:15.781Z,1013.10
2022-08-02T03:14:15.763Z,1013.14
2022-08-02T03:15:15.741Z,1013.16
2022-08-02T03:16:15.721Z,1013.18
2022-08-02T03:17:15.699Z,1013.20
2022-08-02T03:18:15.680Z,1013.22
2022-08-02T03:19:15.659Z,1013.23
2022-08-02T03:20:15.638Z,1013.21
2022-08-02T03:21:15.615Z,1013.23
2022-08-02T03:22:15.599Z,1013.23
2022-08-02T03:23:15.579Z,1013.22
2022-08-02T03:24:15.556Z,1013.24
2022-08-02T03:25:15.533Z,1013.22
2022-08-02T03:26:15.517Z,1013.19
2022-08-02T03:27:15.496Z,1013.21
2022-08-02T03:28:15.480Z,1013.17
2022-08-02T03:29:15.451Z,1013.16
2022-08-02T03:30:15.431Z,1013.13
2022-08-02T03:31:15.418Z,1013.11
2022-08-02T03:32:15.393Z,1013.09
2022-08-02T03:33:15.371Z,1013.03
2022-08-02T03:34:15.352Z,1013.02
2022-08-02T03:35:18.578Z,1012.98
2022-08-02T03:36:15.309Z,1012.95
2022-08-02T03:37:15.284Z,1012.93
2022-08-02T03:38:15.265Z,1012.91
2022-08-02T03:39:15.244Z,1012.91
2022-08-02T03:40:15.228Z,1012.89
2022-08-02T03:41:15.201Z,1012.91
2022-08-02T03:42:15.559Z,1012.89
2022-08-02T03:43:15.164Z,1012.92
2022-08-02T03:44:15.143Z,1012.90
2022-08-02T03:45:15.121Z,1012.86
2022-08-02T03:46:15.100Z,1012.83
2022-08-02T03:47:15.076Z,1012.82
2022-08-02T03:48:35.010Z,1012.84
2022-08-02T03:49:15.067Z,1012.84
2022-08-02T03:50:15.020Z,1012.86
2022-08-02T03:51:14.995Z,1012.86
2022-08-02T03:52:14.977Z,1012.84
2022-08-02T03:53:16.962Z,1012.85
2022-08-02T03:54:15.029Z,1012.85
2022-08-02T03:55:14.917Z,1012.85
2022-08-02T03:56:14.896Z,1012.85
2022-08-02T03:57:14.871Z,1012.86
2022-08-02T03:58:14.850Z,1012.84
2022-08-02T03:59:15.007Z,1012.84
2022-08-02T04:00:14.810Z,1012.83
2022-08-02T04:01:14.822Z,1012.85
2022-08-02T04:02:14.963Z,1012.85
2022-08-02T04:03:17.000Z,1012.92
2022-08-02T04:04:14.762Z,1012.93
2022-08-02T04:05:14.705Z,1012.92
2022-08-02T04:06:15.884Z,1012.94
2022-08-02T04:07:14.667Z,1012.93
2022-08-02T04:08:36.767Z,1012.95
2022-08-02T04:09:14.623Z,1012.91
2022-08-02T04:10:14.602Z,1012.90
2022-08-02T04:11:14.587Z,1012.89
2022-08-02T04:12:14.571Z,1012.90
2022-08-02T04:13:14.539Z,1012.93
2022-08-02T04:14:14.520Z,1012.97
2022-08-02T04:15:14.496Z,1012.92
2022-08-02T04:16:14.477Z,1012.91
2022-08-02T04:17:14.466Z,1012.92
2022-08-02T04:18:14.441Z,1012.92
2022-08-02T04:19:14.627Z,1012.92
2022-08-02T04:20:14.394Z,1012.86
2022-08-02T04:21:14.371Z,1012.88
2022-08-02T04:22:14.687Z,1012.84
2022-08-02T04:23:14.459Z,1012.86
2022-08-02T04:24:14.310Z,1012.84
2022-08-02T04:25:17.550Z,1012.88
2022-08-02T04:26:14.269Z,1012.90
2022-08-02T04:27:49.342Z,1012.93
2022-08-02T04:28:17.538Z,1012.99
2022-08-02T04:29:14.204Z,1013.02
2022-08-02T04:30:14.189Z,1013.05
2022-08-02T04:31:14.168Z,1013.04
2022-08-02T04:32:14.752Z,1013.08
2022-08-02T04:33:14.123Z,1013.06
2022-08-02T04:34:15.330Z,1013.08
2022-08-02T04:35:21.220Z,1013.07
2022-08-02T04:36:14.061Z,1013.12
2022-08-02T04:37:14.039Z,1013.12
2022-08-02T04:38:14.029Z,1013.10
2022-08-02T04:39:14.053Z,1013.11
2022-08-02T04:40:13.978Z,1013.09
2022-08-02T04:41:13.954Z,1013.15
2022-08-02T04:42:14.305Z,1013.08
2022-08-02T04:43:13.917Z,1013.10
2022-08-02T04:44:13.910Z,1013.09
2022-08-02T04:45:16.642Z,1013.05
2022-08-02T04:46:13.850Z,1013.07
2022-08-02T04:47:13.833Z,1013.07
2022-08-02T04:48:13.816Z,1013.07
2022-08-02T04:49:13.983Z,1013.07
2022-08-02T04:50:13.772Z,1013.06
2022-08-02T04:51:13.751Z,1013.12
2022-08-02T04:52:14.089Z,1013.15
2022-08-02T04:53:13.704Z,1013.11
2022-08-02T04:54:13.784Z,1013.13
2022-08-02T04:55:13.668Z,1013.13
2022-08-02T04:56:13.643Z,1013.17
2022-08-02T04:57:13.622Z,1013.10
2022-08-02T04:58:38.992Z,1013.09
2022-08-02T04:59:13.693Z,1013.10
2022-08-02T05:00:13.560Z,1013.08
2022-08-02T05:01:13.723Z,1013.08
2022-08-02T05:02:13.757Z,1013.07
2022-08-02T05:03:13.497Z,1013.09
2022-08-02T05:04:13.480Z,1013.12
2022-08-02T05:05:13.457Z,1013.14
2022-08-02T05:06:19.526Z,1013.16
2022-08-02T05:07:13.415Z,1013.21
2022-08-02T05:08:13.399Z,1013.21
2022-08-02T05:09:13.374Z,1013.16
2022-08-02T05:10:13.354Z,1013.22
2022-08-02T05:11:13.335Z,1013.19
2022-08-02T05:12:13.781Z,1013.23
2022-08-02T05:13:13.289Z,1013.18
2022-08-02T05:14:13.270Z,1013.21
2022-08-02T05:15:13.270Z,1013.20
2022-08-02T05:16:13.230Z,1013.18
2022-08-02T05:17:13.209Z,1013.17
2022-08-02T05:18:13.188Z,1013.19
2022-08-02T05:19:13.166Z,1013.16
2022-08-02T05:20:13.150Z,1013.15
2022-08-02T05:21:13.126Z,1013.16
2022-08-02T05:22:13.458Z,1013.11
2022-08-02T05:23:13.085Z,1013.17
2022-08-02T05:24:13.063Z,1013.13
2022-08-02T05:25:13.048Z,1013.12
2022-08-02T05:26:13.023Z,1013.09
2022-08-02T05:27:21.644Z,1013.09
2022-08-02T05:28:12.987Z,1013.07
2022-08-02T05:29:12.961Z,1013.07
2022-08-02T05:30:12.939Z,1013.11
2022-08-02T05:31:13.238Z,1013.12
2022-08-02T05:32:13.336Z,1013.14
2022-08-02T05:33:12.882Z,1013.18
2022-08-02T05:34:12.862Z,1013.16
2022-08-02T05:35:12.839Z,1013.19
2022-08-02T05:36:12.819Z,1013.22
2022-08-02T05:37:12.798Z,1013.20
2022-08-02T05:38:12.779Z,1013.22
2022-08-02T05:39:18.964Z,1013.24
2022-08-02T05:40:13.437Z,1013.20
2022-08-02T05:41:12.715Z,1013.18
2022-08-02T05:42:13.092Z,1013.17
2022-08-02T05:43:12.676Z,1013.21
2022-08-02T05:44:12.659Z,1013.21
2022-08-02T05:45:12.634Z,1013.22
2022-08-02T05:46:12.616Z,1013.24
2022-08-02T05:47:12.596Z,1013.18
2022-08-02T05:48:12.577Z,1013.20
2022-08-02T05:49:12.635Z,1013.17
2022-08-02T05:50:12.537Z,1013.17
2022-08-02T05:51:12.515Z,1013.12
2022-08-02T05:52:12.861Z,1013.08
2022-08-02T05:53:12.473Z,1013.05
2022-08-02T05:54:12.455Z,1013.02
2022-08-02T05:55:12.434Z,1013.03
2022-08-02T05:56:12.414Z,1013.02
2022-08-02T05:57:12.390Z,1013.01
2022-08-02T05:58:12.374Z,1013.01
2022-08-02T05:59:12.361Z,1013.04
2022-08-02T06:00:12.334Z,1013.00
2022-08-02T06:01:12.353Z,1013.04
2022-08-02T06:02:12.698Z,1013.03
2022-08-02T06:03:12.273Z,1013.06
2022-08-02T06:04:12.253Z,1013.06
2022-08-02T06:05:12.232Z,1013.07
2022-08-02T06:06:12.211Z,1013.08
2022-08-02T06:07:12.198Z,1013.05
2022-08-02T06:08:12.172Z,1013.05
2022-08-02T06:09:12.151Z,1013.06
2022-08-02T06:10:12.134Z,1013.06
2022-08-02T06:11:12.110Z,1013.09
2022-08-02T06:12:12.293Z,1013.13
2022-08-02T06:13:14.548Z,1013.12
2022-08-02T06:14:12.052Z,1013.15
2022-08-02T06:15:12.029Z,1013.13
2022-08-02T06:16:13.984Z,1013.16
2022-08-02T06:17:11.987Z,1013.15
2022-08-02T06:18:11.970Z,1013.17
2022-08-02T06:19:11.953Z,1013.16
2022-08-02T06:20:11.933Z,1013.18
2022-08-02T06:22:42.028Z,1013.15
2022-08-02T06:22:42.130Z,1013.14
2022-08-02T06:23:13.803Z,1013.15
2022-08-02T06:24:11.850Z,1013.16
2022-08-02T06:25:48.171Z,1013.11
2022-08-02T06:26:11.811Z,1013.11
2022-08-02T06:27:11.786Z,1013.01
2022-08-02T06:28:11.830Z,1013.02
2022-08-02T06:29:11.747Z,1012.97
2022-08-02T06:30:11.730Z,1012.94
2022-08-02T06:31:11.710Z,1012.93
2022-08-02T06:32:11.872Z,1012.90
2022-08-02T06:33:11.667Z,1012.90
2022-08-02T06:34:11.650Z,1012.94
2022-08-02T06:35:11.630Z,1013.00
2022-08-02T06:36:11.609Z,1013.00
2022-08-02T06:37:11.589Z,1013.01
2022-08-02T06:38:11.572Z,1012.99
2022-08-02T06:39:11.549Z,1012.97
2022-08-02T06:40:11.530Z,1012.97
2022-08-02T06:41:11.508Z,1012.92
2022-08-02T06:42:11.790Z,1012.93
2022-08-02T06:43:11.472Z,1012.89
2022-08-02T06:44:44.705Z,1012.87
2022-08-02T06:45:11.428Z,1012.90
2022-08-02T06:46:57.193Z,1012.91
2022-08-02T06:47:13.306Z,1012.90
2022-08-02T06:48:11.376Z,1012.94
2022-08-02T06:49:11.671Z,1012.89
2022-08-02T06:50:11.334Z,1012.85
2022-08-02T06:51:11.317Z,1012.90
2022-08-02T06:52:11.606Z,1012.92
2022-08-02T06:53:11.276Z,1012.95
2022-08-02T06:54:11.255Z,1012.99
2022-08-02T06:55:11.235Z,1013.00
2022-08-02T06:56:11.211Z,1013.02
2022-08-02T06:57:11.197Z,1013.05
2022-08-02T06:58:11.173Z,1013.04
2022-08-02T06:59:11.153Z,1013.06
2022-08-02T07:00:11.133Z,1013.01
2022-08-02T07:01:11.197Z,1013.04
2022-08-02T07:02:11.432Z,1013.03
2022-08-02T07:03:11.076Z,1013.05
2022-08-02T07:04:11.064Z,1013.04
2022-08-02T07:05:11.036Z,1013.04
2022-08-02T07:06:11.018Z,1012.98
2022-08-02T07:07:10.998Z,1012.97
2022-08-02T07:08:10.976Z,1012.94
2022-08-02T07:09:20.369Z,1012.90
2022-08-02T07:10:10.935Z,1012.90
2022-08-02T07:11:10.918Z,1012.90
2022-08-02T07:12:11.084Z,1012.93
2022-08-02T07:13:10.881Z,1012.91
2022-08-02T07:14:10.859Z,1012.89
2022-08-02T07:15:10.839Z,1012.88
2022-08-02T07:16:10.820Z,1012.88
2022-08-02T07:17:10.800Z,1012.87
2022-08-02T07:18:10.781Z,1012.86
2022-08-02T07:19:10.764Z,1012.87
2022-08-02T07:20:10.748Z,1012.88
2022-08-02T07:21:10.723Z,1012.87
2022-08-02T07:22:10.789Z,1012.88
2022-08-02T07:23:10.682Z,1012.81
2022-08-02T07:24:10.666Z,1012.84
2022-08-02T07:25:10.644Z,1012.85
2022-08-02T07:26:10.624Z,1012.87
2022-08-02T07:27:12.367Z,1012.89
2022-08-02T07:28:16.828Z,1012.88
2022-08-02T07:29:10.572Z,1012.91
2022-08-02T07:30:10.549Z,1012.89
2022-08-02T07:31:10.527Z,1012.89
2022-08-02T07:32:10.750Z,1012.92
2022-08-02T07:33:10.487Z,1012.93
2022-08-02T07:34:10.468Z,1012.88
2022-08-02T07:35:10.452Z,1012.94
2022-08-02T07:36:16.844Z,1012.90
2022-08-02T07:37:17.672Z,1012.88
2022-08-02T07:38:10.393Z,1012.89
2022-08-02T07:39:10.379Z,1012.90
2022-08-02T07:40:14.037Z,1012.91
2022-08-02T07:41:10.335Z,1012.89
2022-08-02T07:42:10.531Z,1012.95
2022-08-02T07:43:10.296Z,1012.94
2022-08-02T07:44:10.277Z,1012.94
2022-08-02T07:45:10.277Z,1012.95
2022-08-02T07:46:10.240Z,1012.92
2022-08-02T07:47:10.521Z,1012.94
2022-08-02T07:48:10.199Z,1012.88
2022-08-02T07:49:10.268Z,1012.90
2022-08-02T07:50:10.190Z,1012.91
2022-08-02T07:51:13.019Z,1012.91
2022-08-02T07:52:10.518Z,1012.89
2022-08-02T07:53:10.104Z,1012.90
2022-08-02T07:54:10.088Z,1012.93
2022-08-02T07:55:10.071Z,1012.90
2022-08-02T07:56:10.047Z,1012.87
2022-08-02T07:57:10.035Z,1012.85
2022-08-02T07:58:12.402Z,1012.84
2022-08-02T07:59:09.991Z,1012.85
2022-08-02T08:00:09.970Z,1012.82
2022-08-02T08:01:10.007Z,1012.86
2022-08-02T08:02:10.283Z,1012.80
2022-08-02T08:03:09.918Z,1012.83
2022-08-02T08:04:09.899Z,1012.84
2022-08-02T08:05:09.880Z,1012.84
2022-08-02T08:06:09.858Z,1012.89
2022-08-02T08:07:09.841Z,1012.82
2022-08-02T08:08:13.800Z,1012.83
2022-08-02T08:09:09.803Z,1012.83
2022-08-02T08:10:09.788Z,1012.85
2022-08-02T08:11:09.769Z,1012.79
2022-08-02T08:12:10.134Z,1012.82
2022-08-02T08:13:09.735Z,1012.82
2022-08-02T08:14:14.658Z,1012.82
2022-08-02T08:15:09.693Z,1012.80
2022-08-02T08:16:09.685Z,1012.76
2022-08-02T08:17:09.663Z,1012.75
2022-08-02T08:18:09.640Z,1012.77
2022-08-02T08:19:09.617Z,1012.72
2022-08-02T08:20:12.867Z,1012.75
2022-08-02T08:21:09.586Z,1012.77
2022-08-02T08:22:09.999Z,1012.76
2022-08-02T08:23:09.546Z,1012.75
2022-08-02T08:24:09.525Z,1012.68
2022-08-02T08:25:09.510Z,1012.73
2022-08-02T08:26:13.933Z,1012.74
2022-08-02T08:27:09.470Z,1012.71
2022-08-02T08:28:09.455Z,1012.68
2022-08-02T08:29:09.435Z,1012.70
2022-08-02T08:30:09.415Z,1012.65
2022-08-02T08:31:09.399Z,1012.72
2022-08-02T08:32:12.817Z,1012.72
2022-08-02T08:33:09.362Z,1012.73
2022-08-02T08:34:09.342Z,1012.69
2022-08-02T08:35:09.325Z,1012.70
2022-08-02T08:36:09.314Z,1012.62
2022-08-02T08:37:09.288Z,1012.62
2022-08-02T08:38:09.270Z,1012.63
2022-08-02T08:39:09.255Z,1012.59
2022-08-02T08:40:09.236Z,1012.57
2022-08-02T08:41:09.219Z,1012.55
2022-08-02T08:42:09.691Z,1012.55
2022-08-02T08:43:09.180Z,1012.58
2022-08-02T08:44:09.166Z,1012.57
2022-08-02T08:45:09.164Z,1012.60
2022-08-02T08:46:09.130Z,1012.64
2022-08-02T08:47:11.215Z,1012.66
2022-08-02T08:48:09.091Z,1012.64
2022-08-02T08:49:09.079Z,1012.64
2022-08-02T08:50:14.368Z,1012.64
2022-08-02T08:51:09.038Z,1012.67
2022-08-02T08:52:09.489Z,1012.62
2022-08-02T08:53:09.000Z,1012.66
2022-08-02T08:54:08.987Z,1012.65
2022-08-02T08:55:08.966Z,1012.63
2022-08-02T08:56:12.838Z,1012.65
2022-08-02T08:57:08.931Z,1012.64
2022-08-02T08:58:08.912Z,1012.62
2022-08-02T08:59:08.897Z,1012.63
2022-08-02T09:00:08.882Z,1012.63
2022-08-02T09:01:08.913Z,1012.65
2022-08-02T09:02:16.826Z,1012.64
2022-08-02T09:03:08.830Z,1012.65
2022-08-02T09:04:08.811Z,1012.56
2022-08-02T09:05:08.795Z,1012.60
2022-08-02T09:06:08.773Z,1012.58
2022-08-02T09:07:08.756Z,1012.57
2022-08-02T09:08:11.268Z,1012.55
2022-08-02T09:09:08.721Z,1012.53
2022-08-02T09:10:08.701Z,1012.56
2022-08-02T09:11:08.698Z,1012.50
2022-08-02T09:12:08.825Z,1012.58
2022-08-02T09:13:38.663Z,1012.52
2022-08-02T09:14:08.634Z,1012.54
2022-08-02T09:15:12.039Z,1012.53
2022-08-02T09:16:12.953Z,1012.52
2022-08-02T09:17:08.580Z,1012.53
2022-08-02T09:18:08.565Z,1012.52
2022-08-02T09:19:08.548Z,1012.48
2022-08-02T09:20:08.530Z,1012.49
2022-08-02T09:21:08.514Z,1012.52
2022-08-02T09:22:08.622Z,1012.51
2022-08-02T09:23:08.479Z,1012.51
2022-08-02T09:24:08.464Z,1012.51
2022-08-02T09:25:08.446Z,1012.50
2022-08-02T09:26:08.432Z,1012.46
2022-08-02T09:27:08.410Z,1012.50
2022-08-02T09:28:08.401Z,1012.44
2022-08-02T09:29:08.378Z,1012.46
2022-08-02T09:30:12.172Z,1012.44
2022-08-02T09:31:08.340Z,1012.48
2022-08-02T09:32:08.322Z,1012.44
2022-08-02T09:33:08.305Z,1012.44
2022-08-02T09:34:08.302Z,1012.47
2022-08-02T09:35:08.276Z,1012.50
2022-08-02T09:36:08.644Z,1012.51
2022-08-02T09:37:08.243Z,1012.48
2022-08-02T09:38:08.221Z,1012.51
2022-08-02T09:39:08.205Z,1012.48
2022-08-02T09:40:08.189Z,1012.50
2022-08-02T09:41:08.171Z,1012.51
2022-08-02T09:42:08.153Z,1012.53
2022-08-02T09:43:08.137Z,1012.49
2022-08-02T09:44:09.770Z,1012.51
2022-08-02T09:45:08.110Z,1012.50
2022-08-02T09:46:08.086Z,1012.52
2022-08-02T09:47:08.070Z,1012.53
2022-08-02T09:48:08.055Z,1012.51
2022-08-02T09:49:08.236Z,1012.50
2022-08-02T09:50:11.057Z,1012.51
2022-08-02T09:51:08.002Z,1012.49
2022-08-02T09:52:07.986Z,1012.45
2022-08-02T09:53:07.974Z,1012.41
2022-08-02T09:54:09.063Z,1012.48
2022-08-02T09:55:07.943Z,1012.43
2022-08-02T09:56:29.470Z,1012.41
2022-08-02T09:57:07.904Z,1012.37
2022-08-02T09:58:07.887Z,1012.38
2022-08-02T09:59:07.871Z,1012.43
2022-08-02T10:00:07.855Z,1012.45
2022-08-02T10:01:07.865Z,1012.44
2022-08-02T10:02:07.906Z,1012.42
2022-08-02T10:03:07.804Z,1012.42
2022-08-02T10:04:07.787Z,1012.45
2022-08-02T10:05:07.770Z,1012.44
2022-08-02T10:06:07.781Z,1012.44
2022-08-02T10:07:07.737Z,1012.46
2022-08-02T10:08:07.723Z,1012.46
2022-08-02T10:09:07.703Z,1012.42
2022-08-02T10:10:07.688Z,1012.41
2022-08-02T10:11:07.680Z,1012.46
2022-08-02T10:12:07.656Z,1012.45
2022-08-02T10:13:07.639Z,1012.43
2022-08-02T10:14:07.621Z,1012.42
2022-08-02T10:15:07.617Z,1012.38
2022-08-02T10:16:07.597Z,1012.43
2022-08-02T10:17:07.573Z,1012.42
2022-08-02T10:18:28.749Z,1012.40
2022-08-02T10:19:07.541Z,1012.41
2022-08-02T10:20:07.526Z,1012.42
2022-08-02T10:21:07.512Z,1012.43
2022-08-02T10:22:07.491Z,1012.38
2022-08-02T10:23:07.474Z,1012.36
2022-08-02T10:24:07.459Z,1012.37
2022-08-02T10:25:07.444Z,1012.30
2022-08-02T10:26:07.426Z,1012.33
2022-08-02T10:27:07.411Z,1012.29
2022-08-02T10:28:07.395Z,1012.28
2022-08-02T10:29:07.379Z,1012.27
2022-08-02T10:30:07.363Z,1012.20
2022-08-02T10:31:07.347Z,1012.26
2022-08-02T10:32:07.331Z,1012.24
2022-08-02T10:33:07.316Z,1012.26
2022-08-02T10:34:07.298Z,1012.24
2022-08-02T10:35:20.002Z,1012.14
2022-08-02T10:36:07.861Z,1012.18
2022-08-02T10:37:07.251Z,1012.21
2022-08-02T10:38:07.235Z,1012.21
2022-08-02T10:39:07.219Z,1012.16
2022-08-02T10:40:07.204Z,1012.16
2022-08-02T10:41:07.186Z,1012.15
2022-08-02T10:42:07.169Z,1012.15
2022-08-02T10:43:07.156Z,1012.04
2022-08-02T10:44:07.139Z,1012.01
2022-08-02T10:45:07.127Z,1012.06
2022-08-02T10:46:07.106Z,1012.08
2022-08-02T10:47:07.096Z,1012.09
2022-08-02T10:48:07.074Z,1012.07
2022-08-02T10:49:36.144Z,1011.99
2022-08-02T10:50:07.116Z,1012.00
2022-08-02T10:51:07.033Z,1012.04
2022-08-02T10:52:07.011Z,1012.05
2022-08-02T10:53:06.996Z,1011.98
2022-08-02T10:54:06.979Z,1012.04
2022-08-02T10:55:10.807Z,1012.04
2022-08-02T10:56:09.433Z,1012.02
2022-08-02T10:57:06.932Z,1011.99
2022-08-02T10:58:06.918Z,1012.03
2022-08-02T10:59:06.901Z,1012.13
2022-08-02T11:00:06.886Z,1011.99
2022-08-02T11:01:06.966Z,1012.02
2022-08-02T11:02:06.853Z,1011.89
2022-08-02T11:03:06.839Z,1011.90
2022-08-02T11:04:10.245Z,1011.92
2022-08-02T11:05:06.805Z,1011.84
2022-08-02T11:06:06.792Z,1011.86
2022-08-02T11:07:06.775Z,1011.84
2022-08-02T11:08:06.758Z,1011.80
2022-08-02T11:09:06.743Z,1011.82
2022-08-02T11:10:06.728Z,1011.89
2022-08-02T11:11:06.709Z,1011.85
2022-08-02T11:12:06.696Z,1011.91
2022-08-02T11:13:06.683Z,1011.83
2022-08-02T11:14:06.663Z,1011.83
2022-08-02T11:15:07.563Z,1011.91
2022-08-02T11:16:11.660Z,1011.88
2022-08-02T11:17:06.626Z,1011.86
2022-08-02T11:18:06.599Z,1011.81
2022-08-02T11:19:07.161Z,1011.86
2022-08-02T11:20:06.567Z,1011.84
2022-08-02T11:21:06.558Z,1011.82
2022-08-02T11:22:06.540Z,1011.89
2022-08-02T11:23:06.521Z,1011.94
2022-08-02T11:24:06.506Z,1011.88
2022-08-02T11:25:06.490Z,1011.83
2022-08-02T11:26:10.698Z,1011.87
2022-08-02T11:27:06.457Z,1011.84
2022-08-02T11:28:06.444Z,1011.84
2022-08-02T11:29:06.426Z,1011.84
2022-08-02T11:30:06.409Z,1011.79
2022-08-02T11:31:06.397Z,1011.82
2022-08-02T11:32:06.379Z,1011.79
2022-08-02T11:33:06.360Z,1011.83
2022-08-02T11:34:09.605Z,1011.84
2022-08-02T11:35:06.329Z,1011.87
2022-08-02T11:36:06.323Z,1011.81
2022-08-02T11:37:06.299Z,1011.80
2022-08-02T11:38:06.282Z,1011.84
2022-08-02T11:39:06.270Z,1011.83
2022-08-02T11:40:09.073Z,1011.81
2022-08-02T11:41:10.315Z,1011.80
2022-08-02T11:42:06.230Z,1011.84
2022-08-02T11:43:06.206Z,1011.77
2022-08-02T11:44:06.191Z,1011.78
2022-08-02T11:45:06.175Z,1011.79
2022-08-02T11:46:06.159Z,1011.81
2022-08-02T11:47:06.141Z,1011.81
2022-08-02T11:48:06.128Z,1011.83
2022-08-02T11:49:08.517Z,1011.80
2022-08-02T11:50:06.095Z,1011.78
2022-08-02T11:51:06.085Z,1011.81
2022-08-02T11:52:06.065Z,1011.82
2022-08-02T11:53:06.049Z,1011.79
2022-08-02T11:54:06.034Z,1011.79
2022-08-02T11:55:06.018Z,1011.77
2022-08-02T11:56:06.001Z,1011.72
2022-08-02T11:57:05.985Z,1011.71
2022-08-02T11:58:06.336Z,1011.75
2022-08-02T11:59:05.962Z,1011.77
2022-08-02T12:00:05.940Z,1011.78
2022-08-02T12:01:05.921Z,1011.75
2022-08-02T12:02:05.911Z,1011.73
2022-08-02T12:03:05.954Z,1011.71
2022-08-02T12:04:05.874Z,1011.70
2022-08-02T12:05:08.965Z,1011.72